Terminal Aerodrome Forecast
Issued by NWS Charleston, SC

Home | Current Version | Previous Version | Text Only | Print | Product List | Glossary On
Versions: 1 2 3 4 5 6 7 8 9 10 11 12 13
000
FTUS42 KCHS 301126
TAFSAV
TAF
KSAV 301126Z 3012/3112 10006KT 3SM BR OVC003
     FM301400 13008KT P6SM SCT008 BKN012
     FM301600 14010KT P6SM SCT020 BKN080
     FM310600 18009KT P6SM VCSH SCT008 BKN030=

USA.gov is the U.S. government's official web portal to all federal, state and local government web resources and services.